createdAt,value
2022-09-12T00:01:50.962Z,74.07
2022-09-12T00:04:17.711Z,73.47
2022-09-12T00:06:44.363Z,73.72
2022-09-12T00:09:14.444Z,74.40
2022-09-12T00:11:44.506Z,74.27
2022-09-12T00:14:18.401Z,74.03
2022-09-12T00:16:45.388Z,74.07
2022-09-12T00:19:12.922Z,73.50
2022-09-12T00:21:41.442Z,73.03
2022-09-12T00:24:09.593Z,73.27
2022-09-12T00:26:36.711Z,73.62
2022-09-12T00:29:03.687Z,74.28
2022-09-12T00:31:30.335Z,74.60
2022-09-12T00:34:00.603Z,74.96
2022-09-12T00:36:28.782Z,74.31
2022-09-12T00:38:55.457Z,74.33
2022-09-12T00:41:27.458Z,73.79
2022-09-12T00:43:59.091Z,73.94
2022-09-12T00:46:43.855Z,74.29
2022-09-12T00:49:24.825Z,74.44
2022-09-12T00:52:28.092Z,74.59
2022-09-12T00:55:15.215Z,74.34
2022-09-12T00:57:50.062Z,75.24
2022-09-12T01:00:23.089Z,74.81
2022-09-12T01:02:56.574Z,74.76
2022-09-12T01:05:26.855Z,75.08
2022-09-12T01:07:56.186Z,75.18
2022-09-12T01:10:24.489Z,75.23
2022-09-12T01:12:51.586Z,74.56
2022-09-12T01:15:18.267Z,74.61
2022-09-12T01:18:12.591Z,74.18
2022-09-12T01:21:11.409Z,73.69
2022-09-12T01:24:11.486Z,73.92
2022-09-12T01:27:23.258Z,73.55
2022-09-12T01:30:07.075Z,73.75
2022-09-12T01:32:55.875Z,74.27
2022-09-12T01:35:58.447Z,73.83
2022-09-12T01:38:34.437Z,73.66
2022-09-12T01:41:31.739Z,73.37
2022-09-12T01:44:25.672Z,73.47
2022-09-12T01:47:08.312Z,73.50
2022-09-12T01:50:03.225Z,73.35
2022-09-12T01:52:55.843Z,72.96
2022-09-12T01:55:51.296Z,73.77
2022-09-12T01:58:44.679Z,73.99
2022-09-12T02:01:20.143Z,73.88
2022-09-12T02:03:56.000Z,73.64
2022-09-12T02:06:37.257Z,74.26
2022-09-12T02:09:12.868Z,73.74
2022-09-12T02:11:44.783Z,74.44
2022-09-12T02:14:25.749Z,74.38
2022-09-12T02:17:12.023Z,74.03
2022-09-12T02:19:49.253Z,74.09
2022-09-12T02:22:21.573Z,74.23
2022-09-12T02:24:54.562Z,73.71
2022-09-12T02:27:30.386Z,73.71
2022-09-12T02:29:56.940Z,74.11
2022-09-12T02:32:44.850Z,73.89
2022-09-12T02:35:31.072Z,73.90
2022-09-12T02:38:12.017Z,74.17
2022-09-12T02:40:38.842Z,74.59
2022-09-12T02:43:07.176Z,74.50
2022-09-12T02:45:35.953Z,74.49
2022-09-12T02:48:21.151Z,74.16
2022-09-12T02:50:47.976Z,74.30
2022-09-12T02:53:15.547Z,73.49
2022-09-12T02:55:43.111Z,73.47
2022-09-12T02:58:17.959Z,73.83
2022-09-12T03:01:26.410Z,73.37
2022-09-12T03:03:58.657Z,74.04
2022-09-12T03:06:48.844Z,73.89
2022-09-12T03:09:46.984Z,74.16
2022-09-12T03:13:00.907Z,74.45
2022-09-12T03:15:54.755Z,74.42
2022-09-12T03:18:48.946Z,74.67
2022-09-12T03:21:32.298Z,74.81
2022-09-12T03:24:32.895Z,75.01
2022-09-12T03:27:17.067Z,75.10
2022-09-12T03:29:47.933Z,75.31
2022-09-12T03:32:15.300Z,74.84
2022-09-12T03:34:41.742Z,74.73
2022-09-12T03:37:08.175Z,74.21
2022-09-12T03:39:34.600Z,74.66
2022-09-12T03:42:01.039Z,74.77
2022-09-12T03:44:27.559Z,74.79
2022-09-12T03:46:54.019Z,74.59
2022-09-12T03:49:20.468Z,74.91
2022-09-12T03:51:46.894Z,74.89
2022-09-12T03:54:13.428Z,74.97
2022-09-12T03:56:41.112Z,75.04
2022-09-12T03:59:08.135Z,75.00
2022-09-12T04:01:35.381Z,75.18
2022-09-12T04:04:02.060Z,75.24
2022-09-12T04:06:28.721Z,75.21
2022-09-12T04:08:55.746Z,74.65
2022-09-12T04:11:23.598Z,74.46
2022-09-12T04:13:50.426Z,73.86
2022-09-12T04:16:18.449Z,74.18
2022-09-12T04:18:46.261Z,74.01
2022-09-12T04:21:16.979Z,73.47
2022-09-12T04:23:44.143Z,73.63
2022-09-12T04:26:13.543Z,73.14
2022-09-12T04:28:41.530Z,73.81
2022-09-12T04:31:20.618Z,74.03
2022-09-12T04:33:47.286Z,74.25
2022-09-12T04:36:17.009Z,73.74
2022-09-12T04:38:45.810Z,73.70
2022-09-12T04:41:14.869Z,74.17
2022-09-12T04:43:42.362Z,74.16
2022-09-12T04:46:13.285Z,74.21
2022-09-12T04:48:39.759Z,74.14
2022-09-12T04:51:29.692Z,74.76
2022-09-12T04:54:07.258Z,74.64
2022-09-12T04:56:38.044Z,74.79
2022-09-12T04:59:04.785Z,74.37
2022-09-12T05:01:31.656Z,74.47
2022-09-12T05:03:59.907Z,74.01
2022-09-12T05:06:30.683Z,74.24
2022-09-12T05:09:00.111Z,74.49
2022-09-12T05:11:59.710Z,74.17
2022-09-12T05:14:17.132Z,74.06
2022-09-12T05:16:47.257Z,74.26
2022-09-12T05:19:15.833Z,74.53
2022-09-12T05:21:42.264Z,74.46
2022-09-12T05:24:11.338Z,74.65
2022-09-12T05:26:38.242Z,74.41
2022-09-12T05:29:06.037Z,74.59
2022-09-12T05:31:32.894Z,74.61
2022-09-12T05:33:59.341Z,74.69
2022-09-12T05:36:29.201Z,74.48
2022-09-12T05:38:56.897Z,74.74
2022-09-12T05:41:29.281Z,74.54
2022-09-12T05:43:58.853Z,73.92
2022-09-12T05:46:28.839Z,74.01
2022-09-12T05:48:58.255Z,74.41
2022-09-12T05:51:28.637Z,74.36
2022-09-12T05:53:59.144Z,74.44
2022-09-12T05:56:29.072Z,74.43
2022-09-12T05:59:02.865Z,74.95
2022-09-12T06:01:32.262Z,74.90
2022-09-12T06:04:01.898Z,74.74
2022-09-12T06:06:30.982Z,74.65
2022-09-12T06:09:01.069Z,74.50
2022-09-12T06:11:31.822Z,74.27
2022-09-12T06:13:59.956Z,74.34
2022-09-12T06:16:33.563Z,74.71
2022-09-12T06:19:07.010Z,74.74
2022-09-12T06:21:38.772Z,74.27
2022-09-12T06:24:06.576Z,74.40
2022-09-12T06:26:33.388Z,74.11
2022-09-12T06:29:01.398Z,73.88
2022-09-12T06:31:31.904Z,74.14
2022-09-12T06:34:03.875Z,73.89
2022-09-12T06:36:36.336Z,74.49
2022-09-12T06:39:10.981Z,74.77
2022-09-12T06:41:44.010Z,74.37
2022-09-12T06:44:19.472Z,74.41
2022-09-12T06:46:49.648Z,74.80
2022-09-12T06:49:17.459Z,74.58
2022-09-12T06:51:44.360Z,74.35
2022-09-12T06:54:16.876Z,74.42
2022-09-12T06:56:44.555Z,74.72
2022-09-12T06:59:11.048Z,75.07
2022-09-12T07:01:37.647Z,74.49
2022-09-12T07:04:04.938Z,75.47
2022-09-12T07:06:38.946Z,75.00
2022-09-12T07:09:09.729Z,75.07
2022-09-12T07:11:39.614Z,75.66
2022-09-12T07:14:09.368Z,75.37
2022-09-12T07:16:36.879Z,75.85
2022-09-12T07:19:07.843Z,76.01
2022-09-12T07:21:40.301Z,75.72
2022-09-12T07:24:09.930Z,75.73
2022-09-12T07:26:37.566Z,75.12
2022-09-12T07:29:25.535Z,75.17
2022-09-12T07:31:51.666Z,75.38
2022-09-12T07:34:18.269Z,75.05
2022-09-12T07:36:44.688Z,74.73
2022-09-12T07:39:11.178Z,74.71
2022-09-12T07:41:37.939Z,74.38
2022-09-12T07:44:06.577Z,74.60
2022-09-12T07:46:33.466Z,74.22
2022-09-12T07:49:01.646Z,74.09
2022-09-12T07:51:30.538Z,74.06
2022-09-12T07:53:57.951Z,74.23
2022-09-12T07:56:30.142Z,74.24
2022-09-12T07:58:57.858Z,74.14
2022-09-12T08:01:24.798Z,74.00
2022-09-12T08:03:57.862Z,73.97
2022-09-12T08:06:26.819Z,73.67
2022-09-12T08:08:56.640Z,73.34
2022-09-12T08:11:26.295Z,73.01
2022-09-12T08:13:56.164Z,72.37
2022-09-12T08:16:27.235Z,71.99
2022-09-12T08:18:54.155Z,71.50
2022-09-12T08:21:27.291Z,71.15
2022-09-12T08:24:00.832Z,71.07
2022-09-12T08:26:28.538Z,71.01
2022-09-12T08:28:55.264Z,70.96
2022-09-12T08:31:25.392Z,70.93
2022-09-12T08:33:55.789Z,70.81
2022-09-12T08:36:27.153Z,70.80
2022-09-12T08:39:04.054Z,70.83
2022-09-12T08:41:40.799Z,70.38
2022-09-12T08:44:22.760Z,70.03
2022-09-12T08:47:10.725Z,69.89
2022-09-12T08:50:08.116Z,69.84
2022-09-12T08:52:58.705Z,70.10
2022-09-12T08:55:40.062Z,70.23
2022-09-12T08:58:22.659Z,69.63
2022-09-12T09:01:10.580Z,69.28
2022-09-12T09:04:20.706Z,68.75
2022-09-12T09:07:17.586Z,68.96
2022-09-12T09:10:17.999Z,68.70
2022-09-12T09:13:12.192Z,69.06
2022-09-12T09:16:07.317Z,69.00
2022-09-12T09:18:36.462Z,68.87
2022-09-12T09:21:26.596Z,68.56
2022-09-12T09:24:19.142Z,68.47
2022-09-12T09:26:58.172Z,68.75
2022-09-12T09:29:35.424Z,68.06
2022-09-12T09:32:13.126Z,67.66
2022-09-12T09:34:40.031Z,67.47
2022-09-12T09:37:14.464Z,67.00
2022-09-12T09:40:08.721Z,66.22
2022-09-12T09:43:23.575Z,65.97
2022-09-12T09:45:52.510Z,66.39
2022-09-12T09:48:27.479Z,65.99
2022-09-12T09:50:54.035Z,65.80
2022-09-12T09:53:56.420Z,65.06
2022-09-12T09:56:34.163Z,65.19
2022-09-12T09:59:26.961Z,64.48
2022-09-12T10:02:13.027Z,64.92
2022-09-12T10:04:52.455Z,64.56
2022-09-12T10:07:21.714Z,64.25
2022-09-12T10:10:15.446Z,63.78
2022-09-12T10:12:43.015Z,63.79
2022-09-12T10:15:29.466Z,62.65
2022-09-12T10:17:56.539Z,63.90
2022-09-12T10:20:46.622Z,62.75
2022-09-12T10:23:19.054Z,62.92
2022-09-12T10:25:53.435Z,62.92
2022-09-12T10:28:29.671Z,62.39
2022-09-12T10:30:56.570Z,61.56
2022-09-12T10:33:26.396Z,62.15
2022-09-12T10:35:55.106Z,62.11
2022-09-12T10:38:27.246Z,61.48
2022-09-12T10:41:06.454Z,59.98
2022-09-12T10:43:33.037Z,60.09
2022-09-12T10:46:19.729Z,59.27
2022-09-12T10:48:47.957Z,59.06
2022-09-12T10:51:23.517Z,59.79
2022-09-12T10:53:53.417Z,59.75
2022-09-12T10:56:43.773Z,59.04
2022-09-12T10:59:45.179Z,58.33
2022-09-12T11:02:29.983Z,57.55
2022-09-12T11:05:09.499Z,57.46
2022-09-12T11:07:48.257Z,57.09
2022-09-12T11:10:56.907Z,57.42
2022-09-12T11:14:09.604Z,56.36
2022-09-12T11:16:59.223Z,57.26
2022-09-12T11:19:52.970Z,56.06
2022-09-12T11:22:43.215Z,55.42
2022-09-12T11:25:39.545Z,54.21
2022-09-12T11:28:11.736Z,54.12
2022-09-12T11:31:19.544Z,53.61
2022-09-12T11:33:56.332Z,53.36
2022-09-12T11:36:38.071Z,52.37
2022-09-12T11:39:16.048Z,51.03
2022-09-12T11:41:54.639Z,52.14
2022-09-12T11:44:33.008Z,52.82
2022-09-12T11:47:06.646Z,51.47
2022-09-12T11:49:43.210Z,51.08
2022-09-12T11:52:23.709Z,50.72
2022-09-12T11:55:18.301Z,49.91
2022-09-12T11:57:58.475Z,49.04
2022-09-12T12:00:37.000Z,49.54
2022-09-12T12:03:37.007Z,47.98
2022-09-12T12:06:32.383Z,49.17
2022-09-12T12:08:59.443Z,50.22
2022-09-12T12:11:47.975Z,49.03
2022-09-12T12:14:22.458Z,50.12
2022-09-12T12:16:49.944Z,49.64
2022-09-12T12:19:16.289Z,49.78
2022-09-12T12:21:51.302Z,49.69
2022-09-12T12:25:11.788Z,48.15
2022-09-12T12:27:44.136Z,47.96
2022-09-12T12:30:29.410Z,47.33
2022-09-12T12:33:10.781Z,48.74
2022-09-12T12:35:46.753Z,48.80
2022-09-12T12:38:37.027Z,46.37
2022-09-12T12:41:18.783Z,47.68
2022-09-12T12:43:56.045Z,47.46
2022-09-12T12:46:27.427Z,47.69
2022-09-12T12:48:56.047Z,47.82
2022-09-12T12:51:34.845Z,46.58
2022-09-12T12:54:13.020Z,46.94
2022-09-12T12:56:42.409Z,46.97
2022-09-12T12:59:23.555Z,46.58
2022-09-12T13:01:57.071Z,47.35
2022-09-12T13:04:32.327Z,46.12
2022-09-12T13:07:07.909Z,46.88
2022-09-12T13:09:45.178Z,46.57
2022-09-12T13:12:23.423Z,45.53
2022-09-12T13:14:59.306Z,46.67
2022-09-12T13:17:39.655Z,45.50
2022-09-12T13:20:31.513Z,44.74
2022-09-12T13:22:58.562Z,45.73
2022-09-12T13:25:36.870Z,44.89
2022-09-12T13:28:06.223Z,45.69
2022-09-12T13:30:37.332Z,45.87
2022-09-12T13:33:18.289Z,45.37
2022-09-12T13:36:42.083Z,45.02
2022-09-12T13:39:34.252Z,44.26
2022-09-12T13:42:34.374Z,44.93
2022-09-12T13:45:24.731Z,45.35
2022-09-12T13:48:01.835Z,45.85
2022-09-12T13:50:37.625Z,46.06
2022-09-12T13:53:12.998Z,45.60
2022-09-12T13:55:43.050Z,45.99
2022-09-12T13:58:29.973Z,45.95
2022-09-12T14:01:13.770Z,45.67
2022-09-12T14:04:15.263Z,45.61
2022-09-12T14:06:50.332Z,46.32
2022-09-12T14:09:25.966Z,46.59
2022-09-12T14:11:53.635Z,46.24
2022-09-12T14:14:32.666Z,46.73
2022-09-12T14:17:00.517Z,46.40
2022-09-12T14:19:29.071Z,46.00
2022-09-12T14:21:57.561Z,45.87
2022-09-12T14:24:24.812Z,45.66
2022-09-12T14:26:56.686Z,45.28
2022-09-12T14:29:25.191Z,44.88
2022-09-12T14:32:05.014Z,44.85
2022-09-12T14:34:31.563Z,45.67
2022-09-12T14:36:59.199Z,45.42
2022-09-12T14:39:41.379Z,46.19
2022-09-12T14:42:22.413Z,45.32
2022-09-12T14:45:05.907Z,45.37
2022-09-12T14:47:44.280Z,45.30
2022-09-12T14:50:22.664Z,43.60
2022-09-12T14:53:07.968Z,42.85
2022-09-12T14:55:45.139Z,44.81
2022-09-12T14:58:16.463Z,45.09
2022-09-12T15:01:01.728Z,44.77
2022-09-12T15:03:49.425Z,45.43
2022-09-12T15:06:31.147Z,45.67
2022-09-12T15:09:13.372Z,45.76
2022-09-12T15:11:39.810Z,45.91
2022-09-12T15:14:13.834Z,46.01
2022-09-12T15:16:41.516Z,46.15
2022-09-12T15:19:07.979Z,46.17
2022-09-12T15:21:34.625Z,46.26
2022-09-12T15:24:01.087Z,46.16
2022-09-12T15:26:30.467Z,45.94
2022-09-12T15:28:56.956Z,45.90
2022-09-12T15:31:32.401Z,46.18
2022-09-12T15:34:02.374Z,46.47
2022-09-12T15:36:29.467Z,46.37
2022-09-12T15:38:56.340Z,46.45
2022-09-12T15:41:33.669Z,46.07
2022-09-12T15:44:01.067Z,46.09
2022-09-12T15:46:27.579Z,46.23
2022-09-12T15:48:54.029Z,46.82
2022-09-12T15:51:22.275Z,46.79
2022-09-12T15:53:51.009Z,46.79
2022-09-12T15:56:20.944Z,46.84
2022-09-12T15:58:58.182Z,46.46
2022-09-12T16:01:25.809Z,46.51
2022-09-12T16:03:52.395Z,46.39
2022-09-12T16:06:18.858Z,46.25
2022-09-12T16:08:46.137Z,46.75
2022-09-12T16:11:21.211Z,47.09
2022-09-12T16:13:48.455Z,47.61
2022-09-12T16:16:14.958Z,47.82
2022-09-12T16:18:42.565Z,48.14
2022-09-12T16:21:14.694Z,48.00
2022-09-12T16:23:47.177Z,47.91
2022-09-12T16:26:14.517Z,48.19
2022-09-12T16:28:41.279Z,48.42
2022-09-12T16:31:11.619Z,48.96
2022-09-12T16:33:39.599Z,49.54
2022-09-12T16:36:09.990Z,50.06
2022-09-12T16:38:51.538Z,50.32
2022-09-12T16:41:22.121Z,50.56
2022-09-12T16:43:48.742Z,50.77
2022-09-12T16:46:19.862Z,50.88
2022-09-12T16:48:52.383Z,51.02
2022-09-12T16:51:23.664Z,51.04
2022-09-12T16:53:50.851Z,51.46
2022-09-12T16:56:17.927Z,51.90
2022-09-12T16:58:45.478Z,51.97
2022-09-12T17:01:25.345Z,52.19
2022-09-12T17:03:57.709Z,52.31
2022-09-12T17:06:26.146Z,52.59
2022-09-12T17:08:55.148Z,52.90
2022-09-12T17:11:31.782Z,53.17
2022-09-12T17:14:04.972Z,53.51
2022-09-12T17:16:35.980Z,53.67
2022-09-12T17:19:04.021Z,53.77
2022-09-12T17:21:30.595Z,54.09
2022-09-12T17:23:57.206Z,54.01
2022-09-12T17:26:23.666Z,54.00
2022-09-12T17:28:50.463Z,53.86
2022-09-12T17:31:17.180Z,53.66
2022-09-12T17:33:44.018Z,53.98
2022-09-12T17:36:15.272Z,54.21
2022-09-12T17:38:44.702Z,54.72
2022-09-12T17:41:19.123Z,55.16
2022-09-12T17:43:50.155Z,55.29
2022-09-12T17:46:18.477Z,54.96
2022-09-12T17:48:45.559Z,54.99
2022-09-12T17:51:15.040Z,55.66
2022-09-12T17:53:42.894Z,56.20
2022-09-12T17:56:11.344Z,56.54
2022-09-12T17:58:38.181Z,56.72
2022-09-12T18:01:30.292Z,56.69
2022-09-12T18:04:00.469Z,57.13
2022-09-12T18:06:28.451Z,57.41
2022-09-12T18:08:55.190Z,57.60
2022-09-12T18:11:21.750Z,57.36
2022-09-12T18:13:48.464Z,57.42
2022-09-12T18:16:16.424Z,57.84
2022-09-12T18:18:43.257Z,58.30
2022-09-12T18:21:11.777Z,58.59
2022-09-12T18:23:38.944Z,58.60
2022-09-12T18:26:09.421Z,58.63
2022-09-12T18:28:39.713Z,58.77
2022-09-12T18:31:16.432Z,59.03
2022-09-12T18:33:43.256Z,59.34
2022-09-12T18:36:13.154Z,59.54
2022-09-12T18:38:41.458Z,60.03
2022-09-12T18:41:14.784Z,60.31
2022-09-12T18:43:41.397Z,61.13
2022-09-12T18:46:12.492Z,61.25
2022-09-12T18:48:39.338Z,61.31
2022-09-12T18:51:14.618Z,61.40
2022-09-12T18:53:42.576Z,61.73
2022-09-12T18:56:14.145Z,62.02
2022-09-12T18:58:43.731Z,62.30
2022-09-12T19:01:17.513Z,62.59
2022-09-12T19:03:45.483Z,62.50
2022-09-12T19:06:19.620Z,62.95
2022-09-12T19:08:48.997Z,63.10
2022-09-12T19:11:16.169Z,63.16
2022-09-12T19:13:45.879Z,63.29
2022-09-12T19:16:20.176Z,63.48
2022-09-12T19:18:49.798Z,63.47
2022-09-12T19:21:24.311Z,63.02
2022-09-12T19:23:53.217Z,62.96
2022-09-12T19:26:21.121Z,63.06
2022-09-12T19:28:48.437Z,63.13
2022-09-12T19:31:18.845Z,63.58
2022-09-12T19:33:46.292Z,63.46
2022-09-12T19:36:41.203Z,63.68
2022-09-12T19:39:04.761Z,63.95
2022-09-12T19:41:31.448Z,64.40
2022-09-12T19:43:58.746Z,64.66
2022-09-12T19:46:26.512Z,64.65
2022-09-12T19:48:54.170Z,65.11
2022-09-12T19:51:23.826Z,65.33
2022-09-12T19:53:51.247Z,65.84
2022-09-12T19:56:17.767Z,65.87
2022-09-12T19:58:49.062Z,65.85
2022-09-12T20:01:27.614Z,65.58
2022-09-12T20:03:58.104Z,65.32
2022-09-12T20:06:26.349Z,65.14
2022-09-12T20:08:53.815Z,65.11
2022-09-12T20:11:23.727Z,65.13
2022-09-12T20:13:50.974Z,65.13
2022-09-12T20:16:29.230Z,65.43
2022-09-12T20:19:00.387Z,65.90
2022-09-12T20:21:34.103Z,66.22
2022-09-12T20:24:07.413Z,66.16
2022-09-12T20:26:35.156Z,66.28
2022-09-12T20:29:03.153Z,65.96
2022-09-12T20:31:30.372Z,65.80
2022-09-12T20:33:57.933Z,66.07
2022-09-12T20:36:24.512Z,66.28
2022-09-12T20:38:56.660Z,66.43
2022-09-12T20:41:24.339Z,66.49
2022-09-12T20:43:55.783Z,66.16
2022-09-12T20:46:25.563Z,66.24
2022-09-12T20:48:52.998Z,66.13
2022-09-12T20:51:21.586Z,65.99
2022-09-12T20:53:48.478Z,65.93
2022-09-12T20:56:15.263Z,66.11
2022-09-12T20:58:44.316Z,66.05
2022-09-12T21:01:13.744Z,66.16
2022-09-12T21:03:42.788Z,66.20
2022-09-12T21:06:12.628Z,66.29
2022-09-12T21:08:39.270Z,66.77
2022-09-12T21:11:06.500Z,66.83
2022-09-12T21:13:33.748Z,67.26
2022-09-12T21:16:11.523Z,67.61
2022-09-12T21:18:39.031Z,68.10
2022-09-12T21:21:05.883Z,68.31
2022-09-12T21:23:34.392Z,68.47
2022-09-12T21:26:02.368Z,68.31
2022-09-12T21:28:29.166Z,68.03
2022-09-12T21:30:55.985Z,67.45
2022-09-12T21:33:23.138Z,67.20
2022-09-12T21:35:49.858Z,67.22
2022-09-12T21:38:17.990Z,67.76
2022-09-12T21:40:45.143Z,67.89
2022-09-12T21:43:12.960Z,68.22
2022-09-12T21:45:40.395Z,68.68
2022-09-12T21:48:06.923Z,68.73
2022-09-12T21:50:33.392Z,68.54
2022-09-12T21:52:59.832Z,68.80
2022-09-12T21:55:27.231Z,68.83
2022-09-12T21:57:54.943Z,69.17
2022-09-12T22:00:22.463Z,69.16
2022-09-12T22:02:49.148Z,69.27
2022-09-12T22:05:17.118Z,69.62
2022-09-12T22:07:43.823Z,69.69
2022-09-12T22:10:10.830Z,69.69
2022-09-12T22:12:37.379Z,70.14
2022-09-12T22:15:22.880Z,70.19
2022-09-12T22:17:51.320Z,70.30
2022-09-12T22:20:17.843Z,70.23
2022-09-12T22:23:02.985Z,70.25
2022-09-12T22:25:29.650Z,70.50
2022-09-12T22:27:56.279Z,70.63
2022-09-12T22:30:23.373Z,70.42
2022-09-12T22:32:51.345Z,70.26
2022-09-12T22:35:18.448Z,70.60
2022-09-12T22:37:46.989Z,70.46
2022-09-12T22:40:13.616Z,70.72
2022-09-12T22:42:40.395Z,70.85
2022-09-12T22:45:07.924Z,70.67
2022-09-12T22:47:34.412Z,71.11
2022-09-12T22:50:00.943Z,70.81
2022-09-12T22:52:27.386Z,70.42
2022-09-12T22:54:53.805Z,69.70
2022-09-12T22:57:20.323Z,69.45
2022-09-12T22:59:46.769Z,69.57
2022-09-12T23:02:13.280Z,69.94
2022-09-12T23:04:39.916Z,69.81
2022-09-12T23:07:06.531Z,69.83
2022-09-12T23:09:35.358Z,69.81
2022-09-12T23:12:02.764Z,69.50
2022-09-12T23:14:29.332Z,69.40
2022-09-12T23:16:55.831Z,69.27
2022-09-12T23:19:22.264Z,69.58
2022-09-12T23:21:48.691Z,69.85
2022-09-12T23:24:15.122Z,70.02
2022-09-12T23:26:41.562Z,70.34
2022-09-12T23:29:08.914Z,70.69
2022-09-12T23:31:35.470Z,70.99
2022-09-12T23:34:05.850Z,70.45
2022-09-12T23:36:33.474Z,70.71
2022-09-12T23:39:00.476Z,70.90
2022-09-12T23:41:27.244Z,70.60
2022-09-12T23:43:53.865Z,70.49
2022-09-12T23:46:21.578Z,70.72
2022-09-12T23:48:49.052Z,70.84
2022-09-12T23:51:16.058Z,70.63
2022-09-12T23:53:42.498Z,70.60
2022-09-12T23:56:10.154Z,70.61
2022-09-12T23:58:37.123Z,71.26
